createdAt,value
2017-04-23T05:35:41.582Z,105
2017-04-23T05:36:22.160Z,105
2017-04-23T05:37:03.167Z,110
2017-04-23T05:37:43.882Z,110
2017-04-23T05:38:25.034Z,115
2017-04-23T05:39:05.887Z,115
2017-04-23T05:39:46.640Z,120
2017-04-23T05:40:27.217Z,120
2017-04-23T05:41:07.792Z,115
2017-04-23T05:41:48.368Z,115
2017-04-23T05:42:28.940Z,120
2017-04-23T05:43:09.516Z,130
2017-04-23T05:43:50.085Z,130
2017-04-23T05:44:30.657Z,135
2017-04-23T05:45:11.227Z,135
2017-04-23T05:45:51.808Z,135
2017-04-23T05:46:32.382Z,140
2017-04-23T05:47:12.975Z,145
2017-04-23T05:47:53.554Z,145
2017-04-23T05:48:34.115Z,140
2017-04-23T05:49:14.699Z,140
2017-04-23T05:49:55.274Z,135
2017-04-23T05:50:35.863Z,135
2017-04-23T05:51:16.444Z,135
2017-04-23T05:51:57.024Z,140
2017-04-23T05:52:37.602Z,145
2017-04-23T05:53:18.168Z,150
2017-04-23T05:53:58.743Z,160
2017-04-23T05:54:39.327Z,170
2017-04-23T05:55:19.912Z,175
2017-04-23T05:56:00.491Z,175
2017-04-23T05:56:41.070Z,175
2017-04-23T05:57:21.650Z,170
2017-04-23T05:58:02.224Z,165
2017-04-23T05:58:42.805Z,170
2017-04-23T05:59:23.384Z,170
2017-04-23T06:00:03.963Z,180
2017-04-23T06:00:44.547Z,185
2017-04-23T06:01:25.136Z,195
2017-04-23T06:02:05.718Z,195
2017-04-23T06:02:46.297Z,195
2017-04-23T06:03:26.879Z,195
2017-04-23T06:04:07.479Z,190
2017-04-23T06:04:48.046Z,190
2017-04-23T06:05:30.374Z,190
2017-04-23T06:06:10.951Z,195
2017-04-23T06:06:51.530Z,195
2017-04-23T06:07:32.109Z,200
2017-04-23T06:08:12.685Z,205
2017-04-23T06:08:53.265Z,210
2017-04-23T06:09:33.846Z,210
2017-04-23T06:10:14.428Z,210
2017-04-23T06:10:55.001Z,205
2017-04-23T06:11:35.574Z,205
2017-04-23T06:12:16.154Z,205
2017-04-23T06:12:56.730Z,205
2017-04-23T06:13:37.312Z,210
2017-04-23T06:14:17.880Z,225
2017-04-23T06:14:58.463Z,245
2017-04-23T06:15:39.041Z,265
2017-04-23T06:16:19.622Z,270
2017-04-23T06:17:00.195Z,270
2017-04-23T06:17:40.778Z,265
2017-04-23T06:18:21.362Z,265
2017-04-23T06:19:01.944Z,280
2017-04-23T06:19:42.528Z,290
2017-04-23T06:20:23.109Z,300
2017-04-23T06:21:03.688Z,305
2017-04-23T06:21:44.263Z,300
2017-04-23T06:22:24.836Z,290
2017-04-23T06:23:05.418Z,285
2017-04-23T06:23:45.996Z,285
2017-04-23T06:24:26.572Z,285
2017-04-23T06:25:07.155Z,290
2017-04-23T06:25:47.767Z,295
2017-04-23T06:26:28.659Z,295
2017-04-23T06:27:09.454Z,310
2017-04-23T06:27:50.031Z,320
2017-04-23T06:28:30.610Z,330
2017-04-23T06:29:11.540Z,340
2017-04-23T06:29:52.323Z,350
2017-04-23T06:30:33.079Z,360
2017-04-23T06:31:13.659Z,375
2017-04-23T06:31:54.427Z,390
2017-04-23T06:32:35.143Z,395
2017-04-23T06:33:16.121Z,405
2017-04-23T06:33:56.775Z,385
2017-04-23T06:34:37.344Z,375
2017-04-23T06:35:17.993Z,515
2017-04-23T06:35:58.578Z,375
2017-04-23T06:36:39.624Z,385
2017-04-23T06:37:20.263Z,365
2017-04-23T06:38:00.848Z,355
2017-04-23T06:38:41.613Z,345
2017-04-23T06:39:22.704Z,345
2017-04-23T06:40:03.474Z,350
2017-04-23T06:40:44.420Z,355
2017-04-23T06:41:25.225Z,365
2017-04-23T06:42:06.013Z,375
2017-04-23T06:42:46.809Z,380
2017-04-23T06:43:28.042Z,380
2017-04-23T06:44:08.624Z,370
2017-04-23T06:44:49.983Z,375
2017-04-23T06:45:31.559Z,365
2017-04-23T06:46:12.187Z,360
2017-04-23T06:46:52.762Z,365
2017-04-23T06:47:33.617Z,365
2017-04-23T06:48:14.496Z,360
2017-04-23T06:48:55.755Z,355
2017-04-23T06:49:36.948Z,350
2017-04-23T06:50:18.069Z,345
2017-04-23T06:50:58.790Z,335
2017-04-23T06:51:39.525Z,320
2017-04-23T06:52:20.531Z,305
2017-04-23T06:53:01.583Z,295
2017-04-23T06:53:42.355Z,285
2017-04-23T06:54:23.506Z,275
2017-04-23T06:55:04.451Z,265
2017-04-23T06:55:45.249Z,265
2017-04-23T06:56:27.416Z,260
2017-04-23T06:57:07.988Z,250
2017-04-23T06:57:48.751Z,245
2017-04-23T06:58:29.330Z,250
2017-04-23T06:59:09.904Z,265
2017-04-23T06:59:50.739Z,275
2017-04-23T07:00:31.564Z,290
2017-04-23T07:01:12.143Z,300
2017-04-23T07:01:53.107Z,305
2017-04-23T07:02:33.696Z,310
2017-04-23T07:03:14.344Z,310
2017-04-23T07:03:54.925Z,310
2017-04-23T07:04:35.510Z,315
2017-04-23T07:05:16.093Z,310
2017-04-23T07:05:56.676Z,310
2017-04-23T07:06:37.884Z,315
2017-04-23T07:07:18.500Z,335
2017-04-23T07:07:59.582Z,350
2017-04-23T07:08:40.166Z,360
2017-04-23T07:09:20.768Z,365
2017-04-23T07:10:01.803Z,360
2017-04-23T07:10:42.544Z,360
2017-04-23T07:11:23.587Z,370
2017-04-23T07:12:04.166Z,385
2017-04-23T07:12:44.946Z,400
2017-04-23T07:13:25.531Z,400
2017-04-23T07:14:06.201Z,400
2017-04-23T07:14:46.806Z,400
2017-04-23T07:15:27.567Z,425
2017-04-23T07:16:08.278Z,455
2017-04-23T07:16:48.964Z,480
2017-04-23T07:17:29.786Z,500
2017-04-23T07:18:10.497Z,510
2017-04-23T07:18:51.175Z,575
2017-04-23T07:19:32.175Z,510
2017-04-23T07:20:12.883Z,510
2017-04-23T07:20:53.953Z,525
2017-04-23T07:21:34.840Z,540
2017-04-23T07:22:15.943Z,550
2017-04-23T07:22:56.767Z,540
2017-04-23T07:23:37.524Z,545
2017-04-23T07:24:18.271Z,560
2017-04-23T07:24:58.993Z,570
2017-04-23T07:25:39.969Z,565
2017-04-23T07:26:20.691Z,555
2017-04-23T07:27:02.172Z,565
2017-04-23T07:27:42.751Z,630
2017-04-23T07:28:23.395Z,625
2017-04-23T07:29:03.968Z,590
2017-04-23T07:29:44.576Z,595
2017-04-23T07:30:26.116Z,600
2017-04-23T07:31:06.920Z,580
2017-04-23T07:31:47.943Z,555
2017-04-23T07:32:28.911Z,550
2017-04-23T07:33:09.870Z,555
2017-04-23T07:33:50.604Z,550
2017-04-23T07:34:31.970Z,530
2017-04-23T07:35:12.732Z,525
2017-04-23T07:35:54.127Z,520
2017-04-23T07:36:34.786Z,510
2017-04-23T07:37:15.375Z,480
2017-04-23T07:37:56.163Z,455
2017-04-23T07:38:36.945Z,450
2017-04-23T07:39:17.976Z,455
2017-04-23T07:39:58.613Z,465
2017-04-23T07:40:39.193Z,495
2017-04-23T07:41:20.093Z,530
2017-04-23T07:42:01.088Z,555
2017-04-23T07:42:41.713Z,575
2017-04-23T07:43:22.625Z,590
2017-04-23T07:44:03.330Z,605
2017-04-23T07:44:44.489Z,605
2017-04-23T07:45:25.031Z,605
2017-04-23T07:46:05.616Z,625
2017-04-23T07:46:46.369Z,605
2017-04-23T07:47:27.098Z,630
2017-04-23T07:48:07.867Z,890
2017-04-23T07:48:48.647Z,805
2017-04-23T07:49:29.228Z,695
2017-04-23T07:50:10.105Z,640
2017-04-23T07:50:50.686Z,605
2017-04-23T07:51:31.553Z,610
2017-04-23T07:52:12.603Z,625
2017-04-23T07:52:53.273Z,505
2017-04-23T07:53:33.859Z,450
2017-04-23T07:54:14.871Z,425
2017-04-23T07:54:55.744Z,425
2017-04-23T07:55:36.328Z,450
2017-04-23T07:56:16.909Z,460
2017-04-23T07:56:57.527Z,440
2017-04-23T07:57:38.502Z,430
2017-04-23T07:58:19.153Z,455
2017-04-23T07:58:59.892Z,505
2017-04-23T07:59:40.803Z,565
2017-04-23T08:00:21.384Z,615
2017-04-23T08:01:02.390Z,740
2017-04-23T08:01:43.342Z,725
2017-04-23T08:02:24.168Z,680
2017-04-23T08:03:05.086Z,645
2017-04-23T08:03:46.327Z,605
2017-04-23T08:04:27.190Z,565
2017-04-23T08:05:08.272Z,520
2017-04-23T08:05:49.071Z,510
2017-04-23T08:06:30.087Z,550
2017-04-23T08:07:10.911Z,635
2017-04-23T08:07:51.543Z,710
2017-04-23T08:08:32.281Z,785
2017-04-23T08:09:13.616Z,810
2017-04-23T08:09:54.882Z,750
2017-04-23T08:10:35.520Z,705
2017-04-23T08:11:16.296Z,710
2017-04-23T08:11:57.108Z,755
2017-04-23T08:12:37.828Z,835
2017-04-23T08:13:18.667Z,965
2017-04-23T08:13:59.519Z,940
2017-04-23T08:14:40.330Z,940
2017-04-23T08:15:21.684Z,885
2017-04-23T08:16:02.646Z,850
2017-04-23T08:16:43.470Z,835
2017-04-23T08:17:24.063Z,815
2017-04-23T08:18:04.891Z,790
2017-04-23T08:18:45.979Z,775
2017-04-23T08:19:26.654Z,775
2017-04-23T08:20:07.710Z,755
2017-04-23T08:20:48.496Z,700
2017-04-23T08:21:29.080Z,645
2017-04-23T08:22:10.211Z,620
2017-04-23T08:22:51.327Z,625
2017-04-23T08:23:31.972Z,640
2017-04-23T08:24:12.754Z,655
2017-04-23T08:24:53.675Z,670
2017-04-23T08:25:34.426Z,710
2017-04-23T08:26:15.596Z,585
2017-04-23T08:26:56.477Z,515
2017-04-23T08:27:37.511Z,475
2017-04-23T08:28:18.399Z,455
2017-04-23T08:28:58.987Z,455
2017-04-23T08:29:40.093Z,445
2017-04-23T08:30:20.778Z,430
2017-04-23T08:31:01.456Z,420
2017-04-23T08:31:42.179Z,430
2017-04-23T08:32:23.353Z,465
2017-04-23T08:33:04.336Z,500
2017-04-23T08:33:45.666Z,590
2017-04-23T08:34:26.250Z,675
2017-04-23T08:35:06.874Z,710
2017-04-23T08:35:47.445Z,740
2017-04-23T08:36:28.201Z,805
2017-04-23T08:37:08.785Z,835
2017-04-23T08:37:49.625Z,820
2017-04-23T08:38:30.213Z,810
2017-04-23T08:39:10.970Z,855
2017-04-23T08:39:51.766Z,880
2017-04-23T08:40:32.597Z,890
2017-04-23T08:41:13.170Z,780
2017-04-23T08:41:53.750Z,630
2017-04-23T08:42:34.342Z,540
2017-04-23T08:43:14.928Z,510
2017-04-23T08:43:55.518Z,530
2017-04-23T08:44:36.098Z,575
2017-04-23T08:45:16.681Z,615
2017-04-23T08:45:57.258Z,620
2017-04-23T08:46:37.843Z,730
2017-04-23T08:47:18.425Z,845
2017-04-23T08:47:59.013Z,895
2017-04-23T08:48:39.607Z,890
2017-04-23T08:51:12.777Z,810
2017-04-23T08:51:53.341Z,750
2017-04-23T08:52:33.904Z,745
2017-04-23T08:53:14.453Z,745
2017-04-23T08:53:55.035Z,815
2017-04-23T08:54:42.453Z,920
2017-04-23T08:55:23.033Z,870
2017-04-23T08:56:03.615Z,750
2017-04-23T08:56:44.184Z,675
2017-04-23T08:57:39.587Z,645
2017-04-23T08:58:20.399Z,665
2017-04-23T08:59:00.984Z,645
2017-04-23T08:59:41.624Z,615
2017-04-23T09:00:22.206Z,575
2017-04-23T09:01:02.943Z,550
2017-04-23T09:01:43.780Z,540
2017-04-23T09:02:24.802Z,535
2017-04-23T09:03:05.865Z,535
2017-04-23T09:03:46.920Z,535
2017-04-23T09:04:27.935Z,540
2017-04-23T09:05:08.514Z,570
2017-04-23T09:05:49.092Z,575
2017-04-23T09:06:29.696Z,565
2017-04-23T09:07:10.276Z,575
2017-04-23T09:07:50.859Z,600
2017-04-23T09:08:31.443Z,630
2017-04-23T09:09:12.028Z,690
2017-04-23T09:09:52.614Z,790
2017-04-23T09:10:33.198Z,920
2017-04-23T09:11:13.799Z,1045
2017-04-23T09:11:54.368Z,1105
2017-04-23T09:12:34.941Z,1230
2017-04-23T09:13:15.517Z,1305
2017-04-23T09:13:56.531Z,1320
2017-04-23T09:14:37.429Z,1250
2017-04-23T09:15:18.747Z,1195
2017-04-23T09:15:59.991Z,1040
2017-04-23T09:16:40.625Z,1020
2017-04-23T09:17:21.325Z,920
2017-04-23T09:18:02.158Z,875
2017-04-23T09:18:43.028Z,870
2017-04-23T09:19:23.748Z,815
2017-04-23T09:20:04.329Z,745
2017-04-23T09:20:44.907Z,715
2017-04-23T09:21:25.842Z,670
2017-04-23T09:22:06.428Z,615
2017-04-23T09:22:47.005Z,580
2017-04-23T09:23:27.582Z,565
2017-04-23T09:24:08.160Z,570
2017-04-23T09:24:48.955Z,595
2017-04-23T09:25:29.524Z,610
2017-04-23T09:26:10.098Z,605
2017-04-23T09:26:50.682Z,605
2017-04-23T09:27:31.264Z,615
2017-04-23T09:28:11.846Z,695
2017-04-23T09:28:52.465Z,775
2017-04-23T09:29:33.229Z,955
2017-04-23T09:30:13.895Z,975
2017-04-23T09:30:54.476Z,985
2017-04-23T09:31:35.061Z,965
2017-04-23T09:32:15.648Z,965
2017-04-23T09:32:56.227Z,920
2017-04-23T09:33:36.809Z,940
2017-04-23T09:34:17.395Z,1035
2017-04-23T09:34:58.268Z,1120
2017-04-23T09:35:38.848Z,975
2017-04-23T09:36:19.561Z,795
2017-04-23T09:37:00.136Z,670
2017-04-23T09:37:40.719Z,575
2017-04-23T09:38:21.296Z,495
2017-04-23T09:39:02.039Z,425
2017-04-23T09:39:43.140Z,370
2017-04-23T09:40:23.720Z,335
2017-04-23T09:41:04.435Z,310
2017-04-23T09:41:45.015Z,305
2017-04-23T09:42:25.601Z,300
2017-04-23T09:43:06.186Z,290
2017-04-23T09:43:46.762Z,285
2017-04-23T09:44:27.341Z,285
2017-04-23T09:45:07.922Z,275
2017-04-23T09:45:48.508Z,265
2017-04-23T09:46:29.089Z,265
2017-04-23T09:47:09.745Z,260
2017-04-23T09:47:50.327Z,265
2017-04-23T09:48:30.908Z,285
2017-04-23T09:49:11.486Z,310
2017-04-23T09:49:52.075Z,340
2017-04-23T09:50:32.738Z,375
2017-04-23T09:51:13.327Z,420
2017-04-23T09:51:54.420Z,470
2017-04-23T09:52:35.000Z,535
2017-04-23T09:53:15.580Z,585
2017-04-23T09:53:56.161Z,645
2017-04-23T09:54:36.743Z,670
2017-04-23T09:55:17.331Z,725
2017-04-23T09:55:57.917Z,815
2017-04-23T09:56:38.531Z,830
2017-04-23T09:57:19.120Z,815
2017-04-23T09:57:59.690Z,805
2017-04-23T09:58:40.332Z,800
2017-04-23T09:59:20.987Z,815
2017-04-23T10:00:01.571Z,845
2017-04-23T10:00:42.677Z,895
2017-04-23T10:01:23.239Z,925
2017-04-23T10:02:03.819Z,975
2017-04-23T10:02:44.396Z,1000
2017-04-23T10:03:25.066Z,1010
2017-04-23T10:04:05.631Z,1050
2017-04-23T10:04:46.209Z,1090
2017-04-23T10:05:26.767Z,1060
2017-04-23T10:06:07.337Z,1025
2017-04-23T10:06:47.935Z,1010
2017-04-23T10:07:28.504Z,950
2017-04-23T10:08:09.088Z,835
2017-04-23T10:08:49.669Z,765
2017-04-23T10:09:30.249Z,720
2017-04-23T10:10:10.832Z,705
2017-04-23T10:10:51.417Z,690
2017-04-23T10:11:32.008Z,670
2017-04-23T10:12:12.582Z,660
2017-04-23T10:12:53.166Z,635
2017-04-23T10:13:33.745Z,630
2017-04-23T10:14:14.327Z,645
2017-04-23T10:14:54.907Z,685
2017-04-23T10:15:35.493Z,735
2017-04-23T10:16:16.074Z,780
2017-04-23T10:16:56.652Z,800
2017-04-23T10:17:37.240Z,765
2017-04-23T10:18:17.827Z,745
2017-04-23T10:18:58.411Z,765
2017-04-23T10:19:38.996Z,785
2017-04-23T10:20:19.576Z,865
2017-04-23T10:21:00.163Z,880
2017-04-23T10:21:40.746Z,935
2017-04-23T10:22:21.326Z,980
2017-04-23T10:23:01.909Z,960
2017-04-23T10:23:42.489Z,915
2017-04-23T10:24:23.074Z,870
2017-04-23T10:25:03.653Z,810
2017-04-23T10:25:44.242Z,705
2017-04-23T10:26:24.826Z,630
2017-04-23T10:27:05.424Z,560
2017-04-23T10:27:45.988Z,490
2017-04-23T10:28:26.572Z,430
2017-04-23T10:29:07.138Z,395
2017-04-23T10:29:47.714Z,375
2017-04-23T10:30:28.305Z,365
2017-04-23T10:31:08.890Z,360
2017-04-23T10:31:49.472Z,360
2017-04-23T10:32:30.055Z,390
2017-04-23T10:34:47.988Z,495
2017-04-23T10:35:28.571Z,495
2017-04-23T10:36:09.154Z,490
2017-04-23T10:36:49.732Z,490
2017-04-23T10:37:30.313Z,490
2017-04-23T10:38:10.904Z,490
2017-04-23T10:38:51.483Z,495
2017-04-23T10:39:32.064Z,500
2017-04-23T10:40:13.000Z,520
2017-04-23T10:40:53.993Z,540
2017-04-23T10:41:34.959Z,575
2017-04-23T10:42:16.288Z,630
2017-04-23T10:42:57.230Z,660
2017-04-23T10:43:38.095Z,725
2017-04-23T10:44:19.109Z,810
2017-04-23T10:45:00.793Z,805
2017-04-23T10:45:41.103Z,780
2017-04-23T10:46:21.974Z,815
2017-04-23T10:47:02.975Z,820
2017-04-23T10:47:44.542Z,845
2017-04-23T10:50:03.385Z,865
2017-04-23T10:52:23.635Z,930
2017-04-23T10:53:03.737Z,920
2017-04-23T10:53:44.453Z,900
2017-04-23T10:54:25.037Z,890
2017-04-23T10:55:05.615Z,895
2017-04-23T10:55:46.199Z,905
2017-04-23T10:56:26.771Z,915
2017-04-23T10:57:07.479Z,930
2017-04-23T10:57:48.058Z,915
2017-04-23T10:58:28.635Z,930
2017-04-23T10:59:09.198Z,930
2017-04-23T10:59:50.063Z,905
2017-04-23T11:00:30.909Z,865
2017-04-23T11:01:11.722Z,860
2017-04-23T11:01:52.293Z,855
2017-04-23T11:02:32.928Z,845
2017-04-23T11:03:13.508Z,855
2017-04-23T11:03:54.106Z,865
2017-04-23T11:04:34.763Z,875
2017-04-23T11:05:15.342Z,910
2017-04-23T11:05:55.919Z,885
2017-04-23T11:06:36.497Z,850
2017-04-23T11:07:17.093Z,805
2017-04-23T11:07:57.674Z,785
2017-04-23T11:08:38.247Z,800
2017-04-23T11:09:18.830Z,815
2017-04-23T11:09:59.408Z,835
2017-04-23T11:10:39.990Z,845
2017-04-23T11:11:20.573Z,865
2017-04-23T11:12:01.144Z,830
2017-04-23T11:12:41.727Z,805
2017-04-23T11:13:22.307Z,785
2017-04-23T11:14:02.889Z,770
2017-04-23T11:14:43.484Z,755
2017-04-23T11:15:24.061Z,735
2017-04-23T11:16:04.647Z,735
2017-04-23T11:16:45.229Z,750
2017-04-23T11:17:25.803Z,785
2017-04-23T11:18:06.379Z,750
2017-04-23T11:18:46.969Z,740
2017-04-23T11:19:27.553Z,735
2017-04-23T11:20:08.130Z,740
2017-04-23T11:20:48.712Z,720
2017-04-23T11:21:29.296Z,715
2017-04-23T11:22:09.878Z,725
2017-04-23T11:22:50.459Z,730
2017-04-23T11:23:31.043Z,745
2017-04-23T11:24:11.620Z,795
2017-04-23T11:24:52.206Z,830
2017-04-23T11:25:32.793Z,845
2017-04-23T11:26:13.368Z,840
2017-04-23T11:26:53.936Z,830
2017-04-23T11:27:34.519Z,830
2017-04-23T11:28:15.097Z,825
2017-04-23T11:28:55.673Z,785
2017-04-23T11:29:36.260Z,755
2017-04-23T11:30:16.846Z,730
2017-04-23T11:30:57.426Z,715
2017-04-23T11:31:38.006Z,695
2017-04-23T11:32:18.587Z,670
2017-04-23T11:32:59.165Z,660
2017-04-23T11:33:39.745Z,685
2017-04-23T11:34:20.334Z,735
2017-04-23T11:35:00.920Z,710
2017-04-23T11:35:41.493Z,685
2017-04-23T11:36:22.217Z,685
2017-04-23T11:37:02.798Z,680
2017-04-23T11:37:43.433Z,670
2017-04-23T11:38:24.563Z,665
2017-04-23T11:39:05.523Z,665
2017-04-23T11:39:46.347Z,665
2017-04-23T11:40:26.927Z,670
2017-04-23T11:41:07.606Z,685
2017-04-23T11:41:48.561Z,705
2017-04-23T11:42:29.518Z,720
2017-04-23T11:43:10.526Z,715
2017-04-23T11:43:51.113Z,695
2017-04-23T11:44:31.692Z,670
2017-04-23T11:45:12.424Z,650
2017-04-23T11:45:53.016Z,640
2017-04-23T11:46:33.599Z,630
2017-04-23T11:47:14.183Z,620
2017-04-23T11:47:54.766Z,620
2017-04-23T11:48:35.345Z,635
2017-04-23T11:49:15.928Z,645
2017-04-23T11:49:56.507Z,610
2017-04-23T11:50:37.084Z,615
2017-04-23T11:51:17.673Z,620
2017-04-23T11:51:59.395Z,620
2017-04-23T11:52:39.984Z,625
2017-04-23T11:53:20.562Z,630
2017-04-23T11:54:01.144Z,630
2017-04-23T11:54:41.737Z,625
2017-04-23T11:55:22.296Z,625
2017-04-23T11:56:02.875Z,630
2017-04-23T11:56:43.471Z,640
2017-04-23T11:57:24.051Z,640
2017-04-23T11:58:04.627Z,635
2017-04-23T11:58:45.205Z,635
2017-04-23T11:59:25.797Z,630
2017-04-23T12:00:06.348Z,655
2017-04-23T12:00:46.925Z,655
2017-04-23T12:01:27.494Z,610
2017-04-23T12:02:08.062Z,585
2017-04-23T12:02:48.638Z,565
2017-04-23T12:03:29.214Z,555
2017-04-23T12:04:09.858Z,540
2017-04-23T12:04:50.416Z,530
2017-04-23T12:05:30.989Z,545
2017-04-23T12:06:11.658Z,565
2017-04-23T12:06:52.236Z,585
2017-04-23T12:07:32.802Z,655
2017-04-23T12:08:13.376Z,650
2017-04-23T12:08:53.944Z,735
2017-04-23T12:09:34.521Z,720
2017-04-23T12:10:15.098Z,690
2017-04-23T12:10:55.661Z,670
2017-04-23T12:11:36.241Z,665
2017-04-23T12:12:16.802Z,600
2017-04-23T12:12:57.391Z,570
2017-04-23T12:13:37.965Z,545
2017-04-23T12:14:18.539Z,525
2017-04-23T12:14:59.119Z,505
2017-04-23T12:15:39.674Z,495
2017-04-23T12:16:20.240Z,505
2017-04-23T12:17:00.829Z,520
2017-04-23T12:17:41.378Z,545
2017-04-23T12:18:21.961Z,555
2017-04-23T12:19:02.533Z,570
2017-04-23T12:19:43.102Z,585
2017-04-23T12:20:23.674Z,605
2017-04-23T12:21:04.252Z,610
2017-04-23T12:21:44.825Z,630
2017-04-23T12:22:25.393Z,645
2017-04-23T12:23:05.977Z,630
2017-04-23T12:23:46.553Z,650
2017-04-23T12:24:27.187Z,660
2017-04-23T12:25:07.778Z,655
2017-04-23T12:25:48.352Z,650
2017-04-23T12:26:29.168Z,605
2017-04-23T12:27:09.745Z,630
2017-04-23T12:27:50.328Z,600
2017-04-23T12:28:31.030Z,585
2017-04-23T12:29:11.608Z,575
2017-04-23T12:29:52.221Z,570
2017-04-23T12:30:32.803Z,580
2017-04-23T12:31:13.382Z,595
2017-04-23T12:31:54.065Z,655
2017-04-23T12:32:34.839Z,630
2017-04-23T12:33:15.418Z,620
2017-04-23T12:33:56.005Z,610
2017-04-23T12:34:36.586Z,610
2017-04-23T12:35:17.165Z,615
2017-04-23T12:35:57.745Z,630
2017-04-23T12:36:38.323Z,645
2017-04-23T12:37:18.907Z,725
2017-04-23T12:37:59.476Z,705
2017-04-23T12:38:40.178Z,720
2017-04-23T12:39:20.755Z,750
2017-04-23T12:40:01.854Z,725
2017-04-23T12:40:42.941Z,725
2017-04-23T12:41:23.884Z,700
2017-04-23T12:42:04.799Z,650
2017-04-23T12:42:45.507Z,635
2017-04-23T12:43:26.372Z,640
2017-04-23T12:44:07.107Z,650
2017-04-23T12:44:47.834Z,675
2017-04-23T12:45:28.771Z,655
2017-04-23T12:46:09.357Z,610
2017-04-23T12:46:50.098Z,610
2017-04-23T12:47:30.686Z,615
2017-04-23T12:48:11.468Z,625
2017-04-23T12:48:52.280Z,630
2017-04-23T12:49:33.230Z,630
2017-04-23T12:50:14.129Z,625
2017-04-23T12:50:55.050Z,665
2017-04-23T12:51:35.697Z,660
2017-04-23T12:52:16.277Z,660
2017-04-23T12:52:56.858Z,670
2017-04-23T12:53:37.435Z,670
2017-04-23T12:54:18.015Z,685
2017-04-23T12:54:58.598Z,635
2017-04-23T12:55:39.176Z,615
2017-04-23T12:56:19.761Z,615
2017-04-23T12:57:00.345Z,605
2017-04-23T12:57:40.924Z,585
2017-04-23T12:58:21.503Z,575
2017-04-23T12:59:02.089Z,570
2017-04-23T12:59:42.672Z,590
2017-04-23T13:00:23.252Z,615
2017-04-23T13:01:03.834Z,615
2017-04-23T13:01:44.415Z,625
2017-04-23T13:02:24.996Z,635
2017-04-23T13:03:05.581Z,630
2017-04-23T13:03:46.156Z,615
2017-04-23T13:04:26.749Z,600
2017-04-23T13:05:07.333Z,595
2017-04-23T13:05:47.917Z,575
2017-04-23T13:06:28.610Z,570
2017-04-23T13:07:09.676Z,610
2017-04-23T13:07:50.302Z,650
2017-04-23T13:08:31.126Z,655
2017-04-23T13:09:11.939Z,640
2017-04-23T13:09:52.667Z,630
2017-04-23T13:10:33.544Z,675
2017-04-23T13:11:14.504Z,685
2017-04-23T13:11:55.433Z,720
2017-04-23T13:12:36.242Z,710
2017-04-23T13:13:16.846Z,630
2017-04-23T13:13:57.448Z,605
2017-04-23T13:14:38.256Z,580
2017-04-23T13:15:19.036Z,570
2017-04-23T13:16:00.016Z,570
2017-04-23T13:16:41.143Z,580
2017-04-23T13:17:22.439Z,615
2017-04-23T13:18:03.235Z,620
2017-04-23T13:18:43.833Z,605
2017-04-23T13:19:24.618Z,580
2017-04-23T13:20:05.763Z,560
2017-04-23T13:20:46.774Z,545
2017-04-23T13:21:28.310Z,575
2017-04-23T13:22:08.999Z,595
2017-04-23T13:22:49.634Z,610
2017-04-23T13:23:30.411Z,610
2017-04-23T13:24:11.006Z,580
2017-04-23T13:24:51.675Z,585
2017-04-23T13:25:32.476Z,595
2017-04-23T13:26:13.459Z,600
2017-04-23T13:26:54.180Z,610
2017-04-23T13:27:34.855Z,665
2017-04-23T13:28:15.672Z,645
2017-04-23T13:28:56.838Z,610
2017-04-23T13:29:37.634Z,605
2017-04-23T13:30:18.698Z,610
2017-04-23T13:30:59.707Z,605
2017-04-23T13:31:40.545Z,590
2017-04-23T13:32:21.478Z,575
2017-04-23T13:33:02.453Z,570
2017-04-23T13:33:43.758Z,565
2017-04-23T13:34:24.878Z,550
2017-04-23T13:35:05.497Z,535
2017-04-23T13:35:46.071Z,525
2017-04-23T13:36:26.659Z,525
2017-04-23T13:37:07.606Z,515
2017-04-23T13:37:48.401Z,560
2017-04-23T13:38:29.055Z,500
2017-04-23T13:39:10.078Z,520
2017-04-23T13:39:50.711Z,535
2017-04-23T13:40:31.414Z,590
2017-04-23T13:41:12.046Z,600
2017-04-23T13:41:52.647Z,590
2017-04-23T13:42:33.789Z,600
2017-04-23T13:43:14.751Z,610
2017-04-23T13:43:55.346Z,610
2017-04-23T13:44:35.928Z,605
2017-04-23T13:45:16.925Z,605
2017-04-23T13:45:57.959Z,595
2017-04-23T13:46:38.538Z,570
2017-04-23T13:47:19.263Z,520
2017-04-23T13:48:00.177Z,525
2017-04-23T13:48:40.753Z,515
2017-04-23T13:49:21.358Z,525
2017-04-23T13:50:02.260Z,520
2017-04-23T13:50:43.034Z,465
2017-04-23T13:51:23.810Z,475
2017-04-23T13:52:04.476Z,500
2017-04-23T13:52:45.237Z,505
2017-04-23T13:53:26.056Z,520
2017-04-23T13:54:06.705Z,470
2017-04-23T13:54:47.369Z,510
2017-04-23T13:55:27.952Z,545
2017-04-23T13:56:08.535Z,555
2017-04-23T13:56:49.569Z,555
2017-04-23T13:57:30.157Z,550
2017-04-23T13:58:11.035Z,545
2017-04-23T13:58:51.852Z,555
2017-04-23T13:59:32.974Z,550
2017-04-23T14:00:13.547Z,580
2017-04-23T14:00:54.328Z,580
2017-04-23T14:01:35.146Z,580
2017-04-23T14:02:16.224Z,580
2017-04-23T14:02:56.816Z,585
2017-04-23T14:03:37.488Z,590
2017-04-23T14:04:18.061Z,595
2017-04-23T14:04:58.677Z,585
2017-04-23T14:05:39.549Z,580
2017-04-23T14:06:20.306Z,585
2017-04-23T14:07:00.874Z,575
2017-04-23T14:07:41.440Z,575
2017-04-23T14:08:22.376Z,500
2017-04-23T14:09:02.979Z,495
2017-04-23T14:09:43.555Z,490
2017-04-23T14:10:24.149Z,485
2017-04-23T14:11:05.530Z,480
2017-04-23T14:11:46.276Z,480
2017-04-23T14:12:26.900Z,485
2017-04-23T14:13:07.494Z,490
2017-04-23T14:13:48.068Z,495
2017-04-23T14:14:28.638Z,490
2017-04-23T14:15:09.223Z,485
2017-04-23T14:15:49.796Z,485
2017-04-23T14:16:30.773Z,490
2017-04-23T14:17:11.478Z,500
2017-04-23T14:17:52.341Z,505
2017-04-23T14:18:33.136Z,510
2017-04-23T14:19:13.843Z,515
2017-04-23T14:19:54.365Z,520
2017-04-23T14:20:35.179Z,525
2017-04-23T14:21:16.045Z,515
2017-04-23T14:21:56.675Z,505
2017-04-23T14:22:37.451Z,510
2017-04-23T14:23:18.054Z,545
2017-04-23T14:23:58.635Z,515
2017-04-23T14:24:39.544Z,555
2017-04-23T14:25:20.176Z,550
2017-04-23T14:26:00.921Z,540
2017-04-23T14:26:42.334Z,455
2017-04-23T14:27:22.999Z,440
2017-04-23T14:28:03.854Z,445
2017-04-23T14:28:44.681Z,410
2017-04-23T14:29:25.249Z,395
2017-04-23T14:30:05.886Z,390
2017-04-23T14:30:46.465Z,400
2017-04-23T14:31:27.045Z,460
2017-04-23T14:32:07.625Z,425
2017-04-23T14:32:48.202Z,440
2017-04-23T14:33:28.775Z,455
2017-04-23T14:34:09.360Z,470
2017-04-23T14:34:49.941Z,480
2017-04-23T14:35:30.521Z,495
2017-04-23T14:36:11.102Z,510
2017-04-23T14:36:51.655Z,550
2017-04-23T14:37:32.243Z,530
2017-04-23T14:38:12.828Z,445
2017-04-23T14:38:53.405Z,490
2017-04-23T14:39:33.980Z,500
2017-04-23T14:40:15.290Z,460
2017-04-23T14:40:55.855Z,510
2017-04-23T14:41:36.444Z,480
2017-04-23T14:42:17.027Z,480
2017-04-23T14:42:57.612Z,520
2017-04-23T14:43:38.195Z,500
2017-04-23T14:44:18.770Z,520
2017-04-23T14:44:59.363Z,460
2017-04-23T14:45:39.946Z,515
2017-04-23T14:46:20.532Z,520
2017-04-23T14:47:01.120Z,510
2017-04-23T14:47:41.707Z,445
2017-04-23T14:48:22.284Z,485
2017-04-23T14:49:02.872Z,410
2017-04-23T14:49:43.456Z,410
2017-04-23T14:50:24.026Z,385
2017-04-23T14:51:04.619Z,380
2017-04-23T14:51:45.188Z,370
2017-04-23T14:52:25.772Z,370
2017-04-23T14:53:06.351Z,365
2017-04-23T14:53:46.928Z,380
2017-04-23T14:54:27.518Z,370
2017-04-23T14:55:08.102Z,445
2017-04-23T14:55:49.833Z,445
2017-04-23T14:56:30.418Z,450
2017-04-23T14:57:11.011Z,470
2017-04-23T14:57:51.767Z,475
2017-04-23T14:58:32.565Z,400
2017-04-23T14:59:13.170Z,390
2017-04-23T14:59:53.758Z,425
2017-04-23T15:00:34.338Z,405
2017-04-23T15:01:14.924Z,460
2017-04-23T15:01:55.507Z,460
2017-04-23T15:02:36.083Z,410